createdAt,value
2022-10-09T00:00:36.193Z,101.78
2022-10-09T00:03:02.883Z,98.63
2022-10-09T00:05:29.904Z,100.93
2022-10-09T00:07:56.537Z,97.88
2022-10-09T00:10:23.291Z,101.78
2022-10-09T00:12:50.374Z,99.53
2022-10-09T00:15:17.645Z,99.15
2022-10-09T00:17:44.741Z,98.28
2022-10-09T00:20:11.581Z,97.22
2022-10-09T00:22:38.719Z,99.20
2022-10-09T00:25:06.463Z,99.20
2022-10-09T00:27:33.137Z,98.13
2022-10-09T00:29:59.787Z,98.03
2022-10-09T00:32:26.423Z,105.53
2022-10-09T00:34:53.057Z,98.22
2022-10-09T00:37:19.684Z,99.10
2022-10-09T00:39:46.330Z,98.60
2022-10-09T00:42:13.577Z,97.80
2022-10-09T00:44:48.502Z,98.07
2022-10-09T00:47:28.995Z,100.78
2022-10-09T00:50:21.860Z,97.22
2022-10-09T00:52:55.709Z,99.53
2022-10-09T00:55:23.525Z,98.55
2022-10-09T00:57:52.262Z,99.35
2022-10-09T01:00:18.980Z,97.20
2022-10-09T01:02:45.685Z,99.82
2022-10-09T01:05:13.619Z,98.38
2022-10-09T01:07:56.744Z,98.85
2022-10-09T01:10:37.635Z,100.60
2022-10-09T01:13:42.697Z,97.88
2022-10-09T01:16:44.720Z,100.47
2022-10-09T01:19:25.862Z,97.75
2022-10-09T01:22:03.355Z,101.90
2022-10-09T01:24:53.124Z,100.22
2022-10-09T01:27:23.395Z,99.63
2022-10-09T01:29:55.780Z,98.68
2022-10-09T01:32:30.257Z,102.93
2022-10-09T01:34:58.095Z,97.63
2022-10-09T01:37:25.122Z,98.50
2022-10-09T01:39:53.044Z,98.78
2022-10-09T01:42:22.202Z,100.70
2022-10-09T01:44:48.891Z,100.72
2022-10-09T01:47:17.844Z,97.97
2022-10-09T01:49:54.540Z,101.75
2022-10-09T01:52:46.991Z,97.10
2022-10-09T01:55:31.847Z,98.85
2022-10-09T01:58:07.253Z,99.00
2022-10-09T02:00:37.764Z,99.43
2022-10-09T02:03:08.645Z,101.78
2022-10-09T02:05:37.089Z,99.88
2022-10-09T02:08:04.302Z,98.88
2022-10-09T02:10:32.583Z,100.03
2022-10-09T02:13:00.633Z,98.63
2022-10-09T02:15:33.803Z,98.38
2022-10-09T02:18:09.099Z,103.13
2022-10-09T02:20:40.650Z,98.18
2022-10-09T02:23:08.690Z,102.53
2022-10-09T02:25:35.720Z,99.68
2022-10-09T02:28:03.479Z,101.60
2022-10-09T02:30:41.401Z,100.03
2022-10-09T02:33:08.033Z,100.95
2022-10-09T02:35:36.047Z,99.50
2022-10-09T02:38:02.661Z,101.03
2022-10-09T02:40:29.294Z,100.90
2022-10-09T02:42:55.911Z,100.63
2022-10-09T02:45:22.559Z,98.65
2022-10-09T02:47:49.198Z,100.35
2022-10-09T02:50:15.951Z,98.07
2022-10-09T02:52:42.599Z,100.70
2022-10-09T02:55:09.371Z,98.15
2022-10-09T02:57:36.055Z,98.97
2022-10-09T03:00:03.725Z,100.15
2022-10-09T03:02:30.443Z,101.40
2022-10-09T03:04:57.159Z,109.60
2022-10-09T03:07:23.862Z,104.68
2022-10-09T03:09:50.502Z,100.80
2022-10-09T03:12:21.225Z,101.00
2022-10-09T03:14:47.942Z,108.80
2022-10-09T03:17:14.585Z,102.63
2022-10-09T03:19:41.193Z,101.93
2022-10-09T03:22:07.870Z,100.18
2022-10-09T03:24:34.493Z,101.28
2022-10-09T03:27:01.130Z,100.53
2022-10-09T03:29:27.738Z,101.82
2022-10-09T03:31:54.406Z,100.05
2022-10-09T03:34:21.105Z,102.35
2022-10-09T03:36:47.763Z,100.75
2022-10-09T03:39:14.408Z,110.63
2022-10-09T03:41:41.019Z,102.88
2022-10-09T03:44:07.642Z,108.43
2022-10-09T03:46:34.337Z,105.18
2022-10-09T03:49:00.998Z,103.82
2022-10-09T03:51:27.645Z,104.65
2022-10-09T03:53:54.245Z,111.22
2022-10-09T03:56:20.852Z,103.50
2022-10-09T03:58:47.476Z,108.35
2022-10-09T04:01:14.183Z,111.30
2022-10-09T04:03:40.910Z,104.78
2022-10-09T04:06:07.582Z,105.57
2022-10-09T04:08:35.743Z,104.55
2022-10-09T04:11:02.382Z,103.55
2022-10-09T04:13:29.260Z,106.68
2022-10-09T04:15:56.829Z,105.13
2022-10-09T04:18:24.150Z,109.38
2022-10-09T04:20:52.935Z,105.60
2022-10-09T04:23:21.207Z,105.03
2022-10-09T04:25:47.962Z,106.90
2022-10-09T04:28:14.710Z,104.53
2022-10-09T04:30:41.543Z,105.60
2022-10-09T04:33:12.769Z,107.22
2022-10-09T04:35:44.174Z,108.38
2022-10-09T04:38:11.275Z,108.72
2022-10-09T04:40:37.959Z,104.28
2022-10-09T04:43:04.591Z,102.43
2022-10-09T04:45:31.375Z,104.82
2022-10-09T04:47:58.223Z,110.30
2022-10-09T04:50:24.946Z,102.53
2022-10-09T04:52:51.716Z,108.38
2022-10-09T04:55:18.522Z,105.13
2022-10-09T04:57:45.164Z,115.97
2022-10-09T05:00:12.590Z,103.78
2022-10-09T05:02:39.289Z,104.57
2022-10-09T05:05:06.243Z,106.53
2022-10-09T05:07:32.906Z,106.22
2022-10-09T05:09:59.519Z,102.38
2022-10-09T05:12:26.721Z,106.43
2022-10-09T05:14:53.360Z,106.60
2022-10-09T05:17:23.301Z,106.18
2022-10-09T05:19:50.397Z,104.75
2022-10-09T05:22:17.025Z,104.47
2022-10-09T05:24:43.687Z,112.10
2022-10-09T05:27:10.314Z,104.55
2022-10-09T05:29:36.966Z,108.38
2022-10-09T05:32:03.678Z,105.18
2022-10-09T05:34:30.374Z,103.22
2022-10-09T05:36:57.023Z,107.63
2022-10-09T05:39:23.705Z,101.88
2022-10-09T05:41:50.323Z,106.13
2022-10-09T05:44:16.996Z,105.03
2022-10-09T05:46:43.640Z,109.03
2022-10-09T05:49:11.920Z,107.53
2022-10-09T05:51:39.773Z,102.30
2022-10-09T05:54:06.802Z,102.95
2022-10-09T05:56:36.449Z,104.97
2022-10-09T05:59:08.622Z,104.05
2022-10-09T06:01:40.634Z,103.40
2022-10-09T06:04:11.491Z,105.90
2022-10-09T06:06:39.212Z,102.45
2022-10-09T06:09:07.430Z,107.20
2022-10-09T06:11:35.866Z,102.68
2022-10-09T06:14:04.998Z,102.00
2022-10-09T06:16:34.294Z,104.47
2022-10-09T06:19:01.591Z,101.78
2022-10-09T06:21:28.883Z,103.25
2022-10-09T06:23:57.704Z,104.85
2022-10-09T06:26:26.109Z,99.88
2022-10-09T06:28:52.982Z,106.90
2022-10-09T06:31:22.097Z,104.10
2022-10-09T06:33:50.682Z,103.10
2022-10-09T06:36:23.453Z,106.03
2022-10-09T06:38:50.196Z,114.07
2022-10-09T06:41:25.288Z,101.50
2022-10-09T06:43:54.864Z,103.63
2022-10-09T06:46:23.897Z,101.85
2022-10-09T06:48:50.646Z,106.22
2022-10-09T06:51:20.049Z,103.90
2022-10-09T06:53:48.896Z,105.45
2022-10-09T06:56:16.934Z,99.97
2022-10-09T06:58:43.903Z,104.50
2022-10-09T07:01:10.516Z,100.82
2022-10-09T07:03:39.180Z,108.90
2022-10-09T07:06:12.807Z,101.45
2022-10-09T07:08:41.342Z,101.13
2022-10-09T07:11:10.493Z,102.63
2022-10-09T07:13:37.772Z,103.32
2022-10-09T07:16:05.255Z,101.90
2022-10-09T07:18:34.042Z,104.50
2022-10-09T07:21:05.377Z,99.95
2022-10-09T07:23:33.451Z,109.80
2022-10-09T07:26:01.232Z,100.18
2022-10-09T07:28:29.827Z,99.35
2022-10-09T07:30:57.597Z,101.90
2022-10-09T07:33:24.365Z,105.85
2022-10-09T07:35:55.174Z,100.18
2022-10-09T07:38:22.365Z,107.68
2022-10-09T07:40:49.104Z,108.38
2022-10-09T07:43:16.139Z,103.35
2022-10-09T07:45:43.262Z,97.55
2022-10-09T07:48:10.128Z,104.88
2022-10-09T07:50:37.098Z,100.10
2022-10-09T07:53:04.020Z,100.40
2022-10-09T07:55:30.660Z,106.93
2022-10-09T07:57:57.328Z,97.35
2022-10-09T08:00:24.057Z,99.57
2022-10-09T08:02:51.010Z,98.75
2022-10-09T08:05:18.000Z,98.13
2022-10-09T08:07:44.711Z,101.93
2022-10-09T08:10:11.379Z,97.45
2022-10-09T08:12:38.040Z,97.80
2022-10-09T08:15:05.423Z,102.00
2022-10-09T08:17:32.073Z,94.78
2022-10-09T08:19:58.770Z,95.40
2022-10-09T08:22:25.436Z,94.00
2022-10-09T08:24:52.096Z,93.55
2022-10-09T08:27:18.733Z,91.47
2022-10-09T08:29:45.388Z,89.38
2022-10-09T08:32:12.027Z,89.00
2022-10-09T08:34:38.683Z,87.47
2022-10-09T08:37:05.346Z,87.20
2022-10-09T08:39:32.362Z,86.77
2022-10-09T08:42:03.166Z,85.70
2022-10-09T08:44:46.725Z,83.60
2022-10-09T08:47:20.367Z,84.90
2022-10-09T08:49:55.229Z,84.57
2022-10-09T08:52:46.701Z,82.37
2022-10-09T08:55:21.156Z,80.90
2022-10-09T08:57:52.056Z,83.30
2022-10-09T09:00:21.389Z,80.30
2022-10-09T09:03:19.408Z,81.10
2022-10-09T09:05:59.910Z,79.47
2022-10-09T09:08:35.431Z,79.33
2022-10-09T09:11:11.920Z,76.80
2022-10-09T09:14:02.969Z,81.43
2022-10-09T09:16:39.919Z,78.27
2022-10-09T09:19:38.335Z,81.00
2022-10-09T09:22:15.266Z,76.20
2022-10-09T09:25:00.964Z,77.27
2022-10-09T09:27:32.068Z,78.67
2022-10-09T09:30:04.364Z,77.70
2022-10-09T09:32:32.877Z,82.97
2022-10-09T09:35:27.370Z,76.67
2022-10-09T09:37:54.112Z,77.47
2022-10-09T09:40:40.532Z,77.77
2022-10-09T09:43:19.988Z,81.50
2022-10-09T09:45:47.595Z,80.57
2022-10-09T09:48:39.929Z,78.67
2022-10-09T09:51:29.724Z,79.70
2022-10-09T09:54:07.515Z,82.57
2022-10-09T09:57:10.369Z,77.37
2022-10-09T09:59:47.305Z,82.00
2022-10-09T10:02:14.051Z,78.03
2022-10-09T10:05:14.217Z,77.83
2022-10-09T10:07:40.846Z,80.30
2022-10-09T10:10:10.405Z,80.17
2022-10-09T10:12:42.155Z,81.20
2022-10-09T10:15:27.310Z,80.07
2022-10-09T10:18:02.331Z,80.27
2022-10-09T10:20:32.275Z,82.40
2022-10-09T10:23:00.508Z,78.33
2022-10-09T10:25:32.681Z,77.57
2022-10-09T10:28:17.772Z,78.20
2022-10-09T10:30:45.590Z,78.90
2022-10-09T10:33:38.778Z,77.50
2022-10-09T10:36:09.843Z,78.97
2022-10-09T10:38:55.308Z,77.37
2022-10-09T10:41:30.507Z,78.30
2022-10-09T10:44:08.011Z,79.50
2022-10-09T10:46:52.566Z,79.60
2022-10-09T10:49:23.250Z,78.40
2022-10-09T10:52:15.780Z,77.33
2022-10-09T10:55:03.439Z,79.87
2022-10-09T10:57:46.255Z,76.70
2022-10-09T11:00:14.384Z,77.37
2022-10-09T11:03:18.670Z,80.37
2022-10-09T11:05:57.226Z,76.90
2022-10-09T11:08:47.618Z,80.93
2022-10-09T11:11:17.685Z,77.20
2022-10-09T11:13:49.995Z,82.47
2022-10-09T11:16:46.374Z,78.17
2022-10-09T11:19:40.616Z,79.97
2022-10-09T11:22:20.580Z,77.57
2022-10-09T11:25:20.370Z,77.30
2022-10-09T11:27:57.045Z,81.60
2022-10-09T11:30:26.587Z,77.93
2022-10-09T11:33:15.617Z,78.20
2022-10-09T11:35:50.183Z,78.27
2022-10-09T11:38:24.008Z,76.77
2022-10-09T11:40:51.675Z,78.50
2022-10-09T11:43:49.359Z,81.70
2022-10-09T11:46:44.657Z,81.67
2022-10-09T11:49:28.087Z,80.33
2022-10-09T11:52:21.671Z,80.40
2022-10-09T11:54:48.302Z,79.47
2022-10-09T11:57:15.631Z,80.90
2022-10-09T11:59:42.647Z,80.57
2022-10-09T12:02:21.357Z,82.20
2022-10-09T12:04:55.495Z,82.63
2022-10-09T12:10:33.681Z,81.07
2022-10-09T12:13:03.601Z,81.03
2022-10-09T12:15:53.309Z,84.57
2022-10-09T12:18:35.615Z,84.60
2022-10-09T12:21:06.782Z,81.70
2022-10-09T12:23:37.273Z,82.33
2022-10-09T12:26:04.714Z,82.67
2022-10-09T12:28:48.387Z,82.33
2022-10-09T12:31:24.101Z,83.70
2022-10-09T12:34:00.615Z,83.90
2022-10-09T12:36:29.661Z,84.37
2022-10-09T12:38:56.308Z,89.33
2022-10-09T12:41:32.171Z,84.77
2022-10-09T12:43:59.351Z,85.70
2022-10-09T12:46:33.187Z,83.77
2022-10-09T12:49:01.979Z,85.90
2022-10-09T12:51:31.375Z,84.83
2022-10-09T12:53:58.101Z,85.57
2022-10-09T12:56:38.257Z,85.10
2022-10-09T12:59:06.977Z,87.93
2022-10-09T13:01:35.007Z,86.30
2022-10-09T13:04:04.273Z,97.90
2022-10-09T13:06:47.525Z,86.27
2022-10-09T13:09:25.023Z,87.00
2022-10-09T13:11:56.639Z,89.97
2022-10-09T13:14:26.922Z,85.27
2022-10-09T13:16:53.646Z,85.60
2022-10-09T13:19:26.352Z,86.43
2022-10-09T13:22:16.061Z,85.90
2022-10-09T13:24:42.731Z,91.05
2022-10-09T13:27:11.271Z,86.30
2022-10-09T13:29:37.900Z,86.78
2022-10-09T13:32:04.579Z,86.53
2022-10-09T13:34:31.333Z,86.65
2022-10-09T13:36:57.979Z,86.77
2022-10-09T13:39:24.632Z,88.80
2022-10-09T13:41:55.411Z,88.40
2022-10-09T13:44:22.083Z,87.68
2022-10-09T13:46:48.762Z,89.93
2022-10-09T13:49:15.605Z,88.75
2022-10-09T13:51:42.342Z,87.82
2022-10-09T13:54:09.184Z,87.43
2022-10-09T13:56:35.870Z,87.18
2022-10-09T13:59:02.569Z,88.50
2022-10-09T14:01:29.255Z,89.00
2022-10-09T14:03:56.194Z,90.57
2022-10-09T14:06:23.037Z,88.80
2022-10-09T14:08:50.410Z,88.45
2022-10-09T14:11:17.103Z,88.65
2022-10-09T14:13:43.875Z,87.72
2022-10-09T14:16:11.223Z,89.93
2022-10-09T14:18:38.148Z,87.88
2022-10-09T14:21:15.009Z,91.40
2022-10-09T14:23:42.713Z,89.20
2022-10-09T14:26:09.771Z,88.32
2022-10-09T14:28:37.788Z,89.18
2022-10-09T14:31:08.276Z,90.93
2022-10-09T14:33:34.928Z,89.40
2022-10-09T14:36:12.702Z,89.07
2022-10-09T14:38:40.292Z,89.82
2022-10-09T14:41:07.806Z,90.30
2022-10-09T14:43:35.041Z,88.43
2022-10-09T14:46:15.662Z,92.70
2022-10-09T14:48:43.971Z,89.13
2022-10-09T14:51:13.522Z,88.80
2022-10-09T14:53:40.273Z,89.72
2022-10-09T14:56:10.155Z,89.32
2022-10-09T14:58:37.991Z,88.65
2022-10-09T15:01:05.466Z,90.20
2022-10-09T15:03:33.842Z,89.50
2022-10-09T15:06:06.332Z,89.78
2022-10-09T15:08:34.460Z,88.43
2022-10-09T15:11:01.823Z,90.80
2022-10-09T15:13:28.606Z,92.40
2022-10-09T15:16:21.534Z,88.25
2022-10-09T15:18:53.857Z,89.20
2022-10-09T15:21:22.969Z,89.43
2022-10-09T15:23:50.499Z,90.47
2022-10-09T15:26:17.230Z,90.18
2022-10-09T15:28:44.812Z,89.07
2022-10-09T15:31:22.603Z,88.72
2022-10-09T15:33:53.941Z,88.38
2022-10-09T15:36:22.361Z,90.07
2022-10-09T15:38:49.500Z,91.03
2022-10-09T15:41:30.380Z,91.80
2022-10-09T15:43:59.623Z,89.72
2022-10-09T15:46:26.870Z,89.25
2022-10-09T15:48:54.229Z,89.80
2022-10-09T15:51:21.520Z,89.03
2022-10-09T15:53:50.693Z,90.75
2022-10-09T15:56:20.209Z,94.93
2022-10-09T15:58:47.033Z,89.30
2022-10-09T16:01:15.453Z,90.22
2022-10-09T16:03:42.616Z,90.10
2022-10-09T16:06:11.861Z,95.18
2022-10-09T16:08:39.647Z,89.82
2022-10-09T16:13:42.563Z,90.32
2022-10-09T16:16:13.265Z,90.18
2022-10-09T16:18:39.909Z,93.55
2022-10-09T16:21:27.905Z,93.97
2022-10-09T16:23:58.705Z,95.53
2022-10-09T16:26:27.864Z,90.75
2022-10-09T16:28:54.631Z,92.45
2022-10-09T16:31:27.026Z,98.93
2022-10-09T16:33:54.287Z,91.03
2022-10-09T16:36:20.948Z,93.35
2022-10-09T16:38:48.116Z,93.90
2022-10-09T16:41:17.766Z,91.20
2022-10-09T16:43:45.959Z,92.15
2022-10-09T16:46:31.444Z,91.88
2022-10-09T16:49:00.702Z,92.72
2022-10-09T16:51:30.210Z,95.35
2022-10-09T16:53:59.427Z,93.18
2022-10-09T16:56:29.611Z,93.57
2022-10-09T16:58:58.431Z,94.22
2022-10-09T17:01:26.350Z,94.10
2022-10-09T17:03:59.908Z,94.65
2022-10-09T17:06:27.310Z,92.40
2022-10-09T17:08:57.519Z,93.25
2022-10-09T17:11:25.743Z,96.68
2022-10-09T17:13:56.672Z,93.32
2022-10-09T17:16:26.534Z,92.95
2022-10-09T17:18:54.429Z,97.50
2022-10-09T17:21:21.159Z,95.15
2022-10-09T17:23:48.358Z,94.78
2022-10-09T17:26:18.177Z,93.53
2022-10-09T17:28:46.307Z,93.30
2022-10-09T17:31:18.599Z,94.63
2022-10-09T17:33:48.143Z,93.70
2022-10-09T17:36:18.182Z,97.70
2022-10-09T17:38:45.400Z,93.78
2022-10-09T17:41:14.589Z,95.22
2022-10-09T17:43:41.474Z,94.97
2022-10-09T17:46:08.147Z,94.43
2022-10-09T17:48:35.829Z,94.40
2022-10-09T17:51:04.075Z,96.15
2022-10-09T17:53:31.163Z,95.75
2022-10-09T17:56:02.748Z,96.15
2022-10-09T17:58:29.590Z,96.20
2022-10-09T18:00:56.465Z,94.50
2022-10-09T18:03:23.399Z,109.68
2022-10-09T18:05:51.336Z,95.32
2022-10-09T18:08:19.433Z,99.80
2022-10-09T18:10:46.768Z,94.10
2022-10-09T18:13:13.442Z,97.25
2022-10-09T18:15:42.422Z,95.15
2022-10-09T18:18:10.381Z,95.38
2022-10-09T18:20:39.134Z,97.05
2022-10-09T18:23:06.149Z,93.95
2022-10-09T18:25:33.066Z,94.93
2022-10-09T18:27:59.766Z,104.53
2022-10-09T18:30:27.739Z,95.07
2022-10-09T18:32:54.653Z,96.13
2022-10-09T18:35:21.358Z,96.53
2022-10-09T18:37:48.058Z,96.57
2022-10-09T18:40:14.708Z,96.60
2022-10-09T18:42:41.334Z,95.22
2022-10-09T18:45:10.287Z,98.28
2022-10-09T18:47:36.957Z,95.57
2022-10-09T18:50:07.793Z,99.63
2022-10-09T18:52:36.146Z,95.43
2022-10-09T18:55:03.672Z,102.07
2022-10-09T18:57:30.450Z,95.55
2022-10-09T18:59:58.502Z,96.53
2022-10-09T19:02:26.956Z,95.05
2022-10-09T19:04:54.634Z,95.55
2022-10-09T19:07:21.408Z,97.97
2022-10-09T19:09:56.305Z,95.55
2022-10-09T19:12:24.232Z,95.85
2022-10-09T19:14:51.049Z,96.13
2022-10-09T19:17:17.795Z,95.45
2022-10-09T19:19:44.524Z,96.78
2022-10-09T19:22:15.834Z,96.97
2022-10-09T19:24:44.453Z,95.13
2022-10-09T19:27:11.502Z,100.32
2022-10-09T19:29:38.272Z,96.03
2022-10-09T19:32:04.937Z,96.68
2022-10-09T19:34:31.831Z,99.05
2022-10-09T19:36:58.555Z,99.22
2022-10-09T19:39:25.352Z,97.50
2022-10-09T19:41:52.063Z,100.55
2022-10-09T19:44:19.202Z,98.28
2022-10-09T19:46:46.011Z,95.97
2022-10-09T19:49:12.829Z,101.20
2022-10-09T19:51:39.589Z,99.00
2022-10-09T19:54:07.570Z,96.25
2022-10-09T19:56:35.474Z,95.60
2022-10-09T19:59:04.567Z,95.95
2022-10-09T20:01:35.121Z,96.32
2022-10-09T20:04:05.589Z,96.68
2022-10-09T20:06:32.572Z,97.28
2022-10-09T20:08:59.217Z,95.90
2022-10-09T20:11:26.380Z,101.30
2022-10-09T20:13:56.216Z,96.22
2022-10-09T20:16:24.674Z,96.47
2022-10-09T20:18:51.340Z,96.65
2022-10-09T20:21:18.132Z,99.03
2022-10-09T20:23:45.238Z,97.22
2022-10-09T20:26:14.843Z,102.18
2022-10-09T20:28:42.033Z,99.10
2022-10-09T20:31:14.615Z,100.25
2022-10-09T20:33:42.495Z,97.68
2022-10-09T20:36:17.369Z,101.22
2022-10-09T20:38:44.076Z,95.78
2022-10-09T20:41:10.710Z,96.35
2022-10-09T20:43:38.591Z,103.32
2022-10-09T20:46:10.817Z,98.18
2022-10-09T20:48:37.449Z,98.90
2022-10-09T20:51:04.251Z,99.78
2022-10-09T20:53:31.287Z,100.03
2022-10-09T20:56:06.647Z,97.15
2022-10-09T20:58:34.087Z,100.00
2022-10-09T21:01:03.562Z,98.63
2022-10-09T21:03:30.210Z,96.55
2022-10-09T21:05:56.902Z,96.13
2022-10-09T21:08:23.539Z,100.72
2022-10-09T21:10:50.543Z,97.78
2022-10-09T21:13:17.393Z,95.68
2022-10-09T21:15:45.783Z,101.47
2022-10-09T21:18:13.590Z,98.38
2022-10-09T21:20:41.682Z,99.03
2022-10-09T21:23:09.889Z,97.25
2022-10-09T21:25:37.046Z,96.50
2022-10-09T21:28:04.473Z,97.00
2022-10-09T21:30:31.335Z,97.78
2022-10-09T21:32:57.952Z,102.30
2022-10-09T21:35:24.579Z,98.60
2022-10-09T21:37:51.170Z,99.18
2022-10-09T21:40:18.321Z,99.22
2022-10-09T21:42:45.075Z,98.50
2022-10-09T21:45:12.896Z,99.30
2022-10-09T21:47:39.540Z,97.13
2022-10-09T21:50:06.779Z,97.55
2022-10-09T21:52:33.402Z,96.35
2022-10-09T21:55:00.029Z,99.35
2022-10-09T21:57:26.650Z,101.00
2022-10-09T21:59:53.271Z,99.13
2022-10-09T22:02:20.048Z,97.30
2022-10-09T22:04:46.688Z,97.88
2022-10-09T22:07:13.303Z,96.15
2022-10-09T22:09:39.924Z,98.07
2022-10-09T22:12:06.618Z,96.18
2022-10-09T22:14:33.223Z,96.82
2022-10-09T22:16:59.860Z,97.60
2022-10-09T22:19:26.510Z,97.68
2022-10-09T22:21:53.139Z,100.88
2022-10-09T22:24:19.806Z,103.60
2022-10-09T22:26:46.451Z,102.05
2022-10-09T22:29:13.108Z,96.95
2022-10-09T22:31:39.744Z,100.07
2022-10-09T22:34:06.450Z,96.65
2022-10-09T22:36:33.601Z,97.57
2022-10-09T22:39:04.037Z,97.95
2022-10-09T22:41:31.414Z,95.88
2022-10-09T22:43:59.785Z,96.50
2022-10-09T22:46:32.727Z,97.72
2022-10-09T22:48:59.995Z,96.70
2022-10-09T22:51:28.558Z,100.20
2022-10-09T22:53:56.613Z,96.95
2022-10-09T22:56:26.019Z,96.95
2022-10-09T22:58:53.530Z,97.55
2022-10-09T23:01:29.935Z,96.53
2022-10-09T23:04:05.892Z,97.25
2022-10-09T23:06:33.037Z,98.05
2022-10-09T23:09:00.321Z,97.95
2022-10-09T23:11:27.621Z,97.18
2022-10-09T23:13:56.190Z,96.55
2022-10-09T23:16:23.435Z,97.78
2022-10-09T23:18:50.844Z,99.80
2022-10-09T23:21:19.019Z,96.82
2022-10-09T23:23:47.085Z,102.63
2022-10-09T23:26:17.594Z,97.93
2022-10-09T23:28:48.889Z,98.53
2022-10-09T23:31:15.594Z,102.97
2022-10-09T23:33:43.798Z,108.18
2022-10-09T23:36:13.013Z,97.53
2022-10-09T23:38:39.967Z,98.20
2022-10-09T23:41:10.490Z,97.22
2022-10-09T23:43:38.915Z,98.18
2022-10-09T23:46:07.374Z,100.32
2022-10-09T23:48:34.497Z,100.72
2022-10-09T23:51:01.266Z,95.90
2022-10-09T23:53:28.637Z,98.63
2022-10-09T23:55:55.331Z,99.15
2022-10-09T23:58:22.555Z,100.72
